Kaio Maru — JD2067 — position and weather

sailwx.info

Track history (hours):
 
Tides and Currents Weather Stations Pressure Air Temp Water Temp Dewpoint Dewpoint Depression Visibility Wind Speed Wind Dir Waves Ship Positions

Kaio Maru

Last reported at 2014-Nov-26 08:33 UTC. Time now 2014-Nov-26 15:01 UTC.
Position N 35°35' E 139°48'.

Length 36 m; draft 3.2 m.

Type: Tug. MMSI: 431001455.

Date/timePositionNaut miles runAvg speedWind from/ knotsBaromVisibWave heightAir tempDewpointWater temp
2014-Nov-26 08:33N 35°35' E 139°48'1 1.0
2014-Nov-26 07:08N 35°35' E 139°47'1 0.7
2014-Nov-26 05:32N 35°36' E 139°48'1 0.2
2014-Nov-26 02:29N 35°36' E 139°47'3 3.0
2014-Nov-26 01:34N 35°34' E 139°49'3 2.5
2014-Nov-26 00:32N 35°35' E 139°47'3 3.0
2014-Nov-25 23:32N 35°38' E 139°46'0 0.0
2014-Nov-25 22:33N 35°38' E 139°46'0 0.0
2014-Nov-25 21:33N 35°38' E 139°46'0 0.0
2014-Nov-25 20:32N 35°38' E 139°46'0 0.0
2014-Nov-25 19:26N 35°38' E 139°46'0 0.0
2014-Nov-25 18:32N 35°38' E 139°46'0 0.0
2014-Nov-25 17:32N 35°38' E 139°46'0 0.0
2014-Nov-25 16:17N 35°38' E 139°46'0 0.0
2014-Nov-25 15:20N 35°38' E 139°46'0 0.0
2014-Nov-25 12:15N 35°38' E 139°46'2 0.9
2014-Nov-25 10:29N 35°37' E 139°46'3 2.9
2014-Nov-25 09:33N 35°35' E 139°48'1 0.5
2014-Nov-25 08:33N 35°34' E 139°49'5 0.5
2014-Nov-24 23:08N 35°38' E 139°45'2 3.2
2014-Nov-24 22:32N 35°36' E 139°46'3 2.7
2014-Nov-24 21:33N 35°34' E 139°48'3 2.7
2014-Nov-24 20:33N 35°37' E 139°46'1 0.1
2014-Nov-24 07:33N 35°38' E 139°46'5 5.1
2014-Nov-24 06:33N 35°34' E 139°50'6 0.8
2014-Nov-23 23:22N 35°38' E 139°45'3 3.1
2014-Nov-23 22:33N 35°36' E 139°47'3 2.6
2014-Nov-23 21:34N 35°34' E 139°49'  
2014-Nov-21 05:14N 35°38' E 139°46'3 4.5
2014-Nov-21 04:32N 35°35' E 139°48'1 0.1
2014-Nov-20 10:33N 35°36' E 139°47'1 0.8
2014-Nov-20 09:33N 35°35' E 139°47'1 1.2
2014-Nov-20 08:31N 35°37' E 139°47'1 0.1
2014-Nov-19 13:14N 35°38' E 139°46'3 4.1
2014-Nov-19 12:30N 35°35' E 139°48'3 1.5
2014-Nov-19 10:27N 35°38' E 139°46'3 3.2
2014-Nov-19 09:29N 35°35' E 139°48'3 3.1
2014-Nov-19 08:32N 35°34' E 139°51'6 0.1
2014-Nov-17 15:24N 35°38' E 139°46'2 1.7
2014-Nov-17 14:28N 35°36' E 139°46'1 0.2
2014-Nov-17 09:33N 35°36' E 139°47'1 1.0
2014-Nov-17 08:33N 35°36' E 139°46'2 1.6
2014-Nov-17 07:25N 35°38' E 139°46'2 1.9
2014-Nov-17 06:28N 35°36' E 139°46'  
Track history (hours):
 
Tides and Currents Weather Stations Pressure Air Temp Water Temp Dewpoint Dewpoint Depression Visibility Wind Speed Wind Dir Waves Ship Positions

Kaio Maru

Last reported at 2014-Nov-26 08:33 UTC. Time now 2014-Nov-26 15:01 UTC.
Position N 35°35' E 139°48'.

Length 36 m; draft 3.2 m.

Type: Tug. MMSI: 431001455.

Date/timePositionNaut miles runAvg speedWind from/ knotsBaromVisibWave heightAir tempDewpointWater temp
2014-Nov-26 08:33N 35°35' E 139°48'1 1.0
2014-Nov-26 07:08N 35°35' E 139°47'1 0.7
2014-Nov-26 05:32N 35°36' E 139°48'1 0.2
2014-Nov-26 02:29N 35°36' E 139°47'3 3.0
2014-Nov-26 01:34N 35°34' E 139°49'3 2.5
2014-Nov-26 00:32N 35°35' E 139°47'3 3.0
2014-Nov-25 23:32N 35°38' E 139°46'0 0.0
2014-Nov-25 22:33N 35°38' E 139°46'0 0.0
2014-Nov-25 21:33N 35°38' E 139°46'0 0.0
2014-Nov-25 20:32N 35°38' E 139°46'0 0.0
2014-Nov-25 19:26N 35°38' E 139°46'0 0.0
2014-Nov-25 18:32N 35°38' E 139°46'0 0.0
2014-Nov-25 17:32N 35°38' E 139°46'0 0.0
2014-Nov-25 16:17N 35°38' E 139°46'0 0.0
2014-Nov-25 15:20N 35°38' E 139°46'0 0.0
2014-Nov-25 12:15N 35°38' E 139°46'2 0.9
2014-Nov-25 10:29N 35°37' E 139°46'3 2.9
2014-Nov-25 09:33N 35°35' E 139°48'1 0.5
2014-Nov-25 08:33N 35°34' E 139°49'5 0.5
2014-Nov-24 23:08N 35°38' E 139°45'2 3.2
2014-Nov-24 22:32N 35°36' E 139°46'3 2.7
2014-Nov-24 21:33N 35°34' E 139°48'3 2.7
2014-Nov-24 20:33N 35°37' E 139°46'1 0.1
2014-Nov-24 07:33N 35°38' E 139°46'5 5.1
2014-Nov-24 06:33N 35°34' E 139°50'6 0.8
2014-Nov-23 23:22N 35°38' E 139°45'3 3.1
2014-Nov-23 22:33N 35°36' E 139°47'3 2.6
2014-Nov-23 21:34N 35°34' E 139°49'  
2014-Nov-21 05:14N 35°38' E 139°46'3 4.5
2014-Nov-21 04:32N 35°35' E 139°48'1 0.1
2014-Nov-20 10:33N 35°36' E 139°47'1 0.8
2014-Nov-20 09:33N 35°35' E 139°47'1 1.2
2014-Nov-20 08:31N 35°37' E 139°47'1 0.1
2014-Nov-19 13:14N 35°38' E 139°46'3 4.1
2014-Nov-19 12:30N 35°35' E 139°48'3 1.5
2014-Nov-19 10:27N 35°38' E 139°46'3 3.2
2014-Nov-19 09:29N 35°35' E 139°48'3 3.1
2014-Nov-19 08:32N 35°34' E 139°51'6 0.1
2014-Nov-17 15:24N 35°38' E 139°46'2 1.7
2014-Nov-17 14:28N 35°36' E 139°46'1 0.2
2014-Nov-17 09:33N 35°36' E 139°47'1 1.0
2014-Nov-17 08:33N 35°36' E 139°46'2 1.6
2014-Nov-17 07:25N 35°38' E 139°46'2 1.9
2014-Nov-17 06:28N 35°36' E 139°46'  

Dump ship's entire track history